Time;durP1;ratioP1;P1;durP2;ratioP2;P2;SDS_P1;SDS_P2;PMS_P1;PMS_P2;Temp;Humidity;BMP_temperature;BMP_pressure;BME280_temperature;BME280_humidity;BME280_pressure;Samples;Min_cycle;Max_cycle;Signal;HPM_P1;HPM_P2
2022/05/09 00:01:48;;;;;;;;;;;;;;;10.25;36.18;96452.97;5006185;28;19996;-67
2022/05/09 00:04:13;;;;;;;;;;;;;;;10.28;36.12;96450.00;5001560;28;20054;-67
2022/05/09 00:06:39;;;;;;;;;;;;;;;10.24;36.28;96452.16;5001833;28;20028;-67
2022/05/09 00:09:04;;;;;;;;;;;;;;;10.19;36.45;96444.63;5000813;28;20409;-68
2022/05/09 00:11:30;;;;;;;;;;;;;;;10.21;36.64;96447.13;5000208;28;19965;-67
2022/05/09 00:13:55;;;;;;;;;;;;;;;10.26;35.73;96447.47;5004126;28;19996;-67
2022/05/09 00:16:21;;;;;;;;;;;;;;;10.25;36.16;96452.97;4999768;28;20075;-68
2022/05/09 00:18:46;;;;;;;;;;;;;;;10.08;36.89;96447.53;5001633;28;20081;-67
2022/05/09 00:21:11;;;;;;;;;;;;;;;10.08;37.25;96440.38;4998833;28;20470;-67
2022/05/09 00:23:36;;;;;;;;;;;;;;;10.03;36.87;96444.47;5017768;28;20009;-63
2022/05/09 00:26:02;;;;;;;;;;;;;;;10.01;38.07;96438.44;5004903;28;20460;-67
2022/05/09 00:28:28;;;;;;;;;;;;;;;10.00;38.95;96444.78;5014266;28;20152;-67
2022/05/09 00:30:56;;;;;;;;;;;;;;;9.98;38.42;96448.44;5002918;28;20232;-67
2022/05/09 00:33:24;;;;;;;;;;;;;;;9.94;38.18;96440.91;5015398;28;19989;-66
2022/05/09 00:35:49;;;;;;;;;;;;;;;9.88;38.01;96441.50;5012192;28;20022;-67
2022/05/09 00:38:14;;;;;;;;;;;;;;;9.82;37.75;96442.94;5011081;28;20222;-67
2022/05/09 00:41:28;;;;;;;;;;;;;;;9.56;38.06;96443.72;5013652;28;19986;-67
2022/05/09 00:43:30;;;;;;;;;;;;;;;9.36;38.43;96443.00;5006314;28;19965;-67
2022/05/09 00:45:55;;;;;;;;;;;;;;;8.96;38.76;96443.25;5005534;28;20455;-67
2022/05/09 00:48:21;;;;;;;;;;;;;;;8.85;40.11;96444.25;5009750;28;19979;-67
2022/05/09 00:50:46;;;;;;;;;;;;;;;8.68;40.66;96441.34;5012561;28;20025;-67
2022/05/09 00:53:11;;;;;;;;;;;;;;;8.84;40.21;96439.06;5006986;28;20009;-67
2022/05/09 00:55:41;;;;;;;;;;;;;;;8.72;39.91;96431.31;5009472;28;19961;-67
2022/05/09 00:58:10;;;;;;;;;;;;;;;8.70;40.48;96433.25;5014408;28;20407;-67
2022/05/09 01:00:35;;;;;;;;;;;;;;;8.88;41.89;96435.16;5007792;28;19988;-67
2022/05/09 01:03:02;;;;;;;;;;;;;;;9.11;40.78;96434.78;5006906;28;19979;-67
2022/05/09 01:05:27;;;;;;;;;;;;;;;9.28;41.35;96436.63;5006141;28;19986;-67
2022/05/09 01:07:53;;;;;;;;;;;;;;;9.34;40.83;96429.88;5010873;28;20063;-67
2022/05/09 01:10:18;;;;;;;;;;;;;;;9.38;38.93;96430.44;5009796;28;19982;-67
2022/05/09 01:12:43;;;;;;;;;;;;;;;9.45;41.78;96431.47;5006233;28;20087;-67
2022/05/09 01:15:10;;;;;;;;;;;;;;;9.28;40.53;96428.66;5006134;28;20520;-67
2022/05/09 01:17:39;;;;;;;;;;;;;;;9.24;42.45;96432.59;5008568;28;19983;-67
2022/05/09 01:20:04;;;;;;;;;;;;;;;9.00;40.16;96428.69;5011665;28;20456;-67
2022/05/09 01:22:31;;;;;;;;;;;;;;;8.80;43.94;96428.75;5007387;28;19984;-67
2022/05/09 01:24:57;;;;;;;;;;;;;;;8.85;41.23;96428.31;5006139;28;19993;-67
2022/05/09 01:27:22;;;;;;;;;;;;;;;8.64;40.34;96433.84;5010264;28;20010;-67
2022/05/09 01:29:47;;;;;;;;;;;;;;;8.40;43.96;96428.03;5018251;28;20179;-67
2022/05/09 01:32:13;;;;;;;;;;;;;;;8.82;41.28;96431.25;5013254;28;19995;-67
2022/05/09 01:34:40;;;;;;;;;;;;;;;9.11;42.19;96422.31;5010880;28;20001;-67
2022/05/09 01:37:07;;;;;;;;;;;;;;;8.94;42.02;96419.44;5004635;28;19983;-67
2022/05/09 01:39:32;;;;;;;;;;;;;;;8.81;42.48;96427.75;5021139;28;20352;-68
2022/05/09 01:41:57;;;;;;;;;;;;;;;9.03;39.21;96419.56;5015127;28;20256;-65
2022/05/09 01:44:23;;;;;;;;;;;;;;;9.00;41.72;96418.06;5024693;28;19984;-67
2022/05/09 01:49:34;;;;;;;;;;;;;;;9.23;40.53;96420.31;5011592;28;20324;-67
2022/05/09 01:51:59;;;;;;;;;;;;;;;8.84;40.54;96417.84;5022794;28;19977;-67
2022/05/09 01:54:25;;;;;;;;;;;;;;;8.99;41.33;96420.84;5011358;28;20250;-67
2022/05/09 01:56:50;;;;;;;;;;;;;;;8.94;41.04;96418.59;5014355;28;20016;-67
2022/05/09 01:59:15;;;;;;;;;;;;;;;9.04;41.85;96413.28;5024697;28;20028;-67
2022/05/09 02:01:55;;;;;;;;;;;;;;;8.92;40.34;96409.97;5013364;28;20058;-67
2022/05/09 02:04:22;;;;;;;;;;;;;;;8.93;40.35;96417.78;5039408;28;20205;-67
2022/05/09 02:06:47;;;;;;;;;;;;;;;9.18;40.45;96423.41;5012495;28;19999;-67
2022/05/09 02:09:12;;;;;;;;;;;;;;;9.22;40.35;96429.25;5011810;28;20364;-67
2022/05/09 02:11:37;;;;;;;;;;;;;;;9.56;40.77;96425.94;5010881;28;20064;-67
2022/05/09 02:14:03;;;;;;;;;;;;;;;9.43;40.27;96423.69;5022165;28;20045;-68
2022/05/09 02:16:28;;;;;;;;;;;;;;;9.57;38.90;96426.78;5010715;28;19972;-67
2022/05/09 02:18:53;;;;;;;;;;;;;;;9.55;39.62;96424.28;5017260;28;19974;-67
2022/05/09 02:21:19;;;;;;;;;;;;;;;9.56;40.35;96423.28;5016709;28;20049;-67
2022/05/09 02:23:44;;;;;;;;;;;;;;;9.41;38.98;96419.47;5019806;28;19969;-67
2022/05/09 02:26:09;;;;;;;;;;;;;;;9.42;39.66;96416.66;5022550;28;20119;-67
2022/05/09 02:28:34;;;;;;;;;;;;;;;9.51;42.00;96420.25;5021944;28;19999;-68
2022/05/09 02:31:00;;;;;;;;;;;;;;;9.64;39.50;96419.03;5023702;28;20263;-67
2022/05/09 02:33:25;;;;;;;;;;;;;;;9.76;40.15;96415.13;5021910;28;20012;-67
2022/05/09 02:35:50;;;;;;;;;;;;;;;9.75;39.18;96416.13;5016026;28;20471;-67
2022/05/09 02:38:16;;;;;;;;;;;;;;;9.67;39.06;96413.41;5018876;28;20019;-67
2022/05/09 02:40:42;;;;;;;;;;;;;;;9.80;38.74;96421.00;5023165;28;20057;-67
2022/05/09 02:43:07;;;;;;;;;;;;;;;9.88;38.70;96412.25;5018514;28;20428;-68
2022/05/09 02:45:33;;;;;;;;;;;;;;;9.89;38.70;96414.75;5015455;28;19986;-67
2022/05/09 02:47:58;;;;;;;;;;;;;;;9.92;38.13;96417.09;5020104;28;19969;-67
2022/05/09 02:50:23;;;;;;;;;;;;;;;9.86;38.64;96409.72;5013727;28;20068;-68
2022/05/09 02:52:49;;;;;;;;;;;;;;;9.79;38.85;96409.53;5014253;28;19975;-67
2022/05/09 02:55:14;;;;;;;;;;;;;;;9.62;38.77;96413.03;5022537;28;19971;-68
2022/05/09 02:57:39;;;;;;;;;;;;;;;9.56;39.49;96412.63;5023299;28;20566;-68
2022/05/09 03:00:06;;;;;;;;;;;;;;;9.61;38.96;96414.00;5009965;28;20086;-67
2022/05/09 03:02:31;;;;;;;;;;;;;;;9.58;39.27;96408.03;5023287;28;19996;-67
2022/05/09 03:04:56;;;;;;;;;;;;;;;9.51;39.30;96412.28;5012906;28;20036;-67
2022/05/09 03:07:21;;;;;;;;;;;;;;;9.50;39.44;96417.75;5023160;28;20094;-67
2022/05/09 03:09:47;;;;;;;;;;;;;;;9.48;39.22;96412.56;5006377;28;19990;-67
2022/05/09 03:12:13;;;;;;;;;;;;;;;9.44;39.47;96409.38;5022366;28;20347;-67
2022/05/09 03:14:38;;;;;;;;;;;;;;;9.39;39.78;96411.66;5011813;28;20494;-67
2022/05/09 03:17:04;;;;;;;;;;;;;;;9.45;39.14;96415.53;5020491;28;20414;-67
2022/05/09 03:19:29;;;;;;;;;;;;;;;9.36;39.52;96406.66;5013639;28;19984;-67
2022/05/09 03:21:55;;;;;;;;;;;;;;;9.20;40.13;96413.47;5018652;28;19993;-67
2022/05/09 03:24:20;;;;;;;;;;;;;;;9.25;39.96;96414.84;5010087;28;20064;-68
2022/05/09 03:26:45;;;;;;;;;;;;;;;9.13;40.06;96406.22;5021957;28;20397;-67
2022/05/09 03:29:11;;;;;;;;;;;;;;;9.15;39.72;96404.28;5010272;28;20307;-67
2022/05/09 03:31:36;;;;;;;;;;;;;;;9.14;40.54;96407.91;5021046;28;20059;-67
2022/05/09 03:34:01;;;;;;;;;;;;;;;9.12;40.23;96410.72;5012663;28;19993;-68
2022/05/09 03:36:27;;;;;;;;;;;;;;;9.07;40.32;96412.97;5018231;28;20082;-67
2022/05/09 03:38:52;;;;;;;;;;;;;;;8.99;40.09;96404.91;5004302;28;20017;-67
2022/05/09 03:41:17;;;;;;;;;;;;;;;8.80;41.12;96410.16;5018759;28;19986;-67
2022/05/09 03:43:42;;;;;;;;;;;;;;;8.93;40.42;96406.31;5009671;28;20488;-68
2022/05/09 03:46:08;;;;;;;;;;;;;;;8.87;41.12;96414.91;5022238;28;20029;-67
2022/05/09 03:48:33;;;;;;;;;;;;;;;8.88;40.33;96416.56;5009418;28;19974;-67
2022/05/09 03:51:01;;;;;;;;;;;;;;;8.75;40.91;96408.94;5022185;28;20009;-67
2022/05/09 03:53:26;;;;;;;;;;;;;;;8.81;41.10;96413.66;5008807;28;20417;-67
2022/05/09 03:55:51;;;;;;;;;;;;;;;8.82;41.20;96413.53;5022138;28;19972;-67
2022/05/09 03:58:16;;;;;;;;;;;;;;;8.92;41.11;96416.13;5008900;28;20005;-67
2022/05/09 04:00:43;;;;;;;;;;;;;;;8.92;40.91;96415.28;5020922;28;19986;-67
2022/05/09 04:03:08;;;;;;;;;;;;;;;9.03;40.54;96411.59;5009501;28;19993;-67
2022/05/09 04:05:35;;;;;;;;;;;;;;;9.01;41.32;96413.59;5012019;28;20041;-67
2022/05/09 04:08:01;;;;;;;;;;;;;;;9.12;40.43;96412.53;5015372;28;20462;-67
2022/05/09 04:10:27;;;;;;;;;;;;;;;9.18;40.73;96418.09;5021636;28;20007;-67
2022/05/09 04:12:52;;;;;;;;;;;;;;;9.00;41.32;96403.94;5012120;28;19970;-67
2022/05/09 04:18:01;;;;;;;;;;;;;;;9.15;41.07;96410.41;5012840;28;20108;-67
2022/05/09 04:20:29;;;;;;;;;;;;;;;9.24;40.40;96408.69;5022173;28;19968;-67
2022/05/09 04:22:54;;;;;;;;;;;;;;;9.25;40.95;96409.53;5013340;28;19986;-67
2022/05/09 04:25:21;;;;;;;;;;;;;;;9.30;40.83;96408.09;5015811;28;19989;-67
2022/05/09 04:27:47;;;;;;;;;;;;;;;9.44;40.65;96411.19;5019788;28;19979;-67
2022/05/09 04:30:12;;;;;;;;;;;;;;;9.45;40.66;96423.50;5020046;28;20051;-67
2022/05/09 04:32:38;;;;;;;;;;;;;;;9.50;40.98;96418.59;5019506;28;20421;-67
2022/05/09 04:35:03;;;;;;;;;;;;;;;9.61;40.66;96419.31;5021711;28;20269;-67
2022/05/09 04:37:29;;;;;;;;;;;;;;;9.69;40.73;96412.25;5008488;28;20053;-67
2022/05/09 04:39:55;;;;;;;;;;;;;;;9.75;40.21;96415.31;5012304;28;20060;-67
2022/05/09 04:42:20;;;;;;;;;;;;;;;9.87;40.47;96423.88;5008099;28;20045;-67
2022/05/09 04:44:46;;;;;;;;;;;;;;;9.94;40.37;96419.63;5021734;28;19970;-67
2022/05/09 04:47:12;;;;;;;;;;;;;;;10.04;40.35;96420.38;5008851;28;19975;-67
2022/05/09 04:49:38;;;;;;;;;;;;;;;10.10;40.34;96424.28;5008405;28;20139;-67
2022/05/09 04:52:03;;;;;;;;;;;;;;;10.19;40.28;96422.47;5009973;28;20084;-66
2022/05/09 04:54:28;;;;;;;;;;;;;;;10.31;39.81;96425.72;5017445;28;19989;-66
2022/05/09 04:56:54;;;;;;;;;;;;;;;10.45;39.79;96424.31;5013522;28;19965;-66
2022/05/09 04:59:19;;;;;;;;;;;;;;;10.51;40.08;96423.69;5012052;28;20029;-67
2022/05/09 05:01:44;;;;;;;;;;;;;;;10.62;40.14;96423.41;5017260;28;19993;-67
2022/05/09 05:04:10;;;;;;;;;;;;;;;10.75;39.87;96427.47;5007727;28;19969;-66
2022/05/09 05:06:35;;;;;;;;;;;;;;;10.86;39.93;96424.53;5019381;28;20134;-66
2022/05/09 05:09:00;;;;;;;;;;;;;;;10.99;40.06;96428.56;5018907;28;20103;-66
2022/05/09 05:11:26;;;;;;;;;;;;;;;11.16;39.78;96424.19;5025118;28;19988;-66
2022/05/09 05:13:51;;;;;;;;;;;;;;;11.31;39.52;96429.69;5010183;28;20493;-67
2022/05/09 05:16:16;;;;;;;;;;;;;;;11.39;39.67;96435.06;5024795;28;20215;-67
2022/05/09 05:18:42;;;;;;;;;;;;;;;11.47;39.69;96431.59;5016772;28;19987;-67
2022/05/09 05:21:11;;;;;;;;;;;;;;;11.58;39.65;96429.59;5024964;28;19987;-67
2022/05/09 05:23:37;;;;;;;;;;;;;;;11.75;39.53;96431.28;5011722;28;19971;-67
2022/05/09 05:26:02;;;;;;;;;;;;;;;11.90;39.10;96420.78;5024452;28;20369;-66
2022/05/09 05:28:28;;;;;;;;;;;;;;;12.10;38.43;96425.81;5022986;28;19978;-67
2022/05/09 05:30:53;;;;;;;;;;;;;;;12.25;38.54;96431.31;5024157;28;20259;-67
2022/05/09 05:33:18;;;;;;;;;;;;;;;12.39;38.66;96437.78;5011767;28;20384;-67
2022/05/09 05:35:44;;;;;;;;;;;;;;;12.60;38.18;96436.41;5025106;28;20104;-67
2022/05/09 05:38:09;;;;;;;;;;;;;;;12.71;38.46;96431.72;5016052;28;20472;-67
2022/05/09 05:40:34;;;;;;;;;;;;;;;12.82;38.41;96431.34;5024994;28;19963;-67
2022/05/09 05:42:59;;;;;;;;;;;;;;;12.93;38.14;96436.28;5011841;28;19991;-67
2022/05/09 05:45:25;;;;;;;;;;;;;;;13.13;38.04;96433.22;5012913;28;20481;-66
2022/05/09 05:47:50;;;;;;;;;;;;;;;13.27;37.71;96429.00;5017142;28;20369;-67
2022/05/09 05:50:17;;;;;;;;;;;;;;;13.42;37.83;96430.91;5018051;28;20083;-67
2022/05/09 05:52:42;;;;;;;;;;;;;;;13.55;37.34;96430.34;5023345;28;20477;-67
2022/05/09 05:55:08;;;;;;;;;;;;;;;13.66;37.04;96434.44;5018951;28;20224;-67
2022/05/09 05:57:34;;;;;;;;;;;;;;;13.87;36.75;96441.00;5005549;28;20033;-67
2022/05/09 05:59:59;;;;;;;;;;;;;;;13.61;35.21;96437.66;5016002;28;20444;-67
2022/05/09 06:02:24;;;;;;;;;;;;;;;13.54;34.70;96437.53;5015746;28;19985;-67
2022/05/09 06:04:49;;;;;;;;;;;;;;;13.66;35.46;96440.63;5015747;28;20461;-67
2022/05/09 06:07:15;;;;;;;;;;;;;;;13.79;34.66;96442.72;5023738;28;19970;-67
2022/05/09 06:09:40;;;;;;;;;;;;;;;14.02;34.01;96438.41;5020217;28;19980;-67
2022/05/09 06:12:06;;;;;;;;;;;;;;;13.94;34.26;96442.81;5009703;28;20177;-67
2022/05/09 06:14:31;;;;;;;;;;;;;;;14.24;33.68;96441.25;5018083;28;19988;-67
2022/05/09 06:16:56;;;;;;;;;;;;;;;14.37;33.48;96438.75;5020513;28;20521;-67
2022/05/09 06:19:23;;;;;;;;;;;;;;;14.52;33.49;96441.44;5014959;28;19962;-67
2022/05/09 06:21:49;;;;;;;;;;;;;;;14.69;33.01;96444.78;5016281;28;19981;-67
2022/05/09 06:24:14;;;;;;;;;;;;;;;14.86;32.69;96450.03;5014978;28;19960;-67
2022/05/09 06:26:40;;;;;;;;;;;;;;;14.85;32.98;96449.19;5018169;28;19984;-67
2022/05/09 06:29:06;;;;;;;;;;;;;;;15.15;32.51;96453.69;5021142;28;20032;-67
2022/05/09 06:31:32;;;;;;;;;;;;;;;15.17;32.35;96456.19;5015677;28;20264;-67
2022/05/09 06:33:57;;;;;;;;;;;;;;;15.27;32.39;96454.06;5004056;28;20006;-67
2022/05/09 06:36:22;;;;;;;;;;;;;;;15.34;33.01;96451.44;5016458;28;20109;-67
2022/05/09 06:38:48;;;;;;;;;;;;;;;15.54;31.85;96454.34;5016176;28;20433;-67
2022/05/09 06:41:13;;;;;;;;;;;;;;;15.64;31.75;96451.41;5017740;28;20869;-67
2022/05/09 06:43:39;;;;;;;;;;;;;;;15.72;32.62;96453.13;5014067;28;20042;-67
2022/05/09 06:46:06;;;;;;;;;;;;;;;15.94;31.50;96448.59;5011716;28;20463;-68
2022/05/09 06:48:31;;;;;;;;;;;;;;;15.96;31.38;96457.28;5010350;28;20442;-68
2022/05/09 06:50:56;;;;;;;;;;;;;;;15.97;31.39;96456.25;5004130;28;19982;-67
2022/05/09 06:53:21;;;;;;;;;;;;;;;16.03;31.33;96446.59;5016476;28;20073;-67
2022/05/09 06:55:47;;;;;;;;;;;;;;;16.11;31.46;96451.00;5017707;28;20011;-67
2022/05/09 06:58:13;;;;;;;;;;;;;;;16.28;31.47;96446.19;5010110;28;20279;-67
2022/05/09 07:00:39;;;;;;;;;;;;;;;16.37;30.95;96447.75;5016254;28;19963;-67
2022/05/09 07:03:04;;;;;;;;;;;;;;;16.39;31.15;96445.69;5016768;28;19959;-67
2022/05/09 07:05:29;;;;;;;;;;;;;;;16.58;31.31;96448.72;5007816;28;20014;-67
2022/05/09 07:07:55;;;;;;;;;;;;;;;16.71;30.69;96453.38;5007492;28;20631;-67
2022/05/09 07:10:20;;;;;;;;;;;;;;;16.71;31.38;96461.44;5002992;28;20103;-68
2022/05/09 07:12:47;;;;;;;;;;;;;;;16.82;30.59;96459.22;5004815;28;20283;-68
2022/05/09 07:15:12;;;;;;;;;;;;;;;17.19;30.29;96453.63;5006930;28;20405;-68
2022/05/09 07:17:38;;;;;;;;;;;;;;;17.12;30.77;96458.97;5007757;28;20061;-67
2022/05/09 07:20:03;;;;;;;;;;;;;;;17.28;29.73;96461.31;5017078;28;20470;-67
2022/05/09 07:22:29;;;;;;;;;;;;;;;17.32;29.76;96464.47;5012734;28;20438;-67
2022/05/09 07:24:54;;;;;;;;;;;;;;;17.50;29.78;96465.75;5011204;28;20033;-67
2022/05/09 07:27:19;;;;;;;;;;;;;;;17.74;29.52;96459.00;5003869;28;19948;-68
2022/05/09 07:29:45;;;;;;;;;;;;;;;17.71;30.00;96458.59;5000385;28;20755;-67
2022/05/09 07:32:10;;;;;;;;;;;;;;;17.77;30.65;96461.28;4996911;28;20434;-67
2022/05/09 07:34:35;;;;;;;;;;;;;;;17.87;28.95;96465.47;5009257;28;20049;-68
2022/05/09 07:37:00;;;;;;;;;;;;;;;18.16;28.99;96466.97;5003396;28;20006;-67
2022/05/09 07:39:26;;;;;;;;;;;;;;;17.62;29.61;96466.84;5009012;28;19951;-68
2022/05/09 07:41:51;;;;;;;;;;;;;;;17.75;30.48;96465.22;5012663;28;20046;-67
2022/05/09 07:44:16;;;;;;;;;;;;;;;17.74;31.06;96461.69;5016727;28;19959;-67
2022/05/09 07:46:41;;;;;;;;;;;;;;;17.89;29.97;96472.34;5016725;28;20006;-67
2022/05/09 07:49:07;;;;;;;;;;;;;;;17.88;29.69;96473.34;5014416;28;19964;-67
2022/05/09 07:51:36;;;;;;;;;;;;;;;17.89;29.32;96469.66;5016126;28;20405;-67
2022/05/09 07:54:02;;;;;;;;;;;;;;;18.25;29.10;96470.28;5006563;28;19971;-67
2022/05/09 07:56:27;;;;;;;;;;;;;;;18.30;29.14;96466.97;5017389;28;19949;-67
2022/05/09 07:58:52;;;;;;;;;;;;;;;18.66;30.19;96471.13;5013801;28;20050;-67
2022/05/09 08:01:17;;;;;;;;;;;;;;;18.94;29.68;96467.34;5009635;28;19984;-67
2022/05/09 08:03:43;;;;;;;;;;;;;;;18.88;29.02;96472.75;5009628;28;20018;-68
2022/05/09 08:06:08;;;;;;;;;;;;;;;18.93;29.22;96468.41;5017546;28;20502;-68
2022/05/09 08:08:36;;;;;;;;;;;;;;;18.89;28.52;96466.31;5004000;28;20359;-67
2022/05/09 08:11:01;;;;;;;;;;;;;;;19.08;27.99;96468.13;5004428;28;19969;-67
2022/05/09 08:13:28;;;;;;;;;;;;;;;19.03;28.08;96472.50;5001814;28;19986;-67
2022/05/09 08:15:53;;;;;;;;;;;;;;;19.01;28.45;96469.22;5010196;28;20469;-67
2022/05/09 08:18:19;;;;;;;;;;;;;;;19.38;27.50;96474.91;5017072;28;19991;-68
2022/05/09 08:20:45;;;;;;;;;;;;;;;19.41;27.92;96471.78;5010954;28;19941;-67
2022/05/09 08:23:12;;;;;;;;;;;;;;;19.67;28.12;96466.47;5011881;28;20372;-67
2022/05/09 08:25:37;;;;;;;;;;;;;;;19.28;29.16;96467.28;5012423;28;19965;-67
2022/05/09 08:28:03;;;;;;;;;;;;;;;19.80;27.41;96466.41;5013928;28;19988;-67
2022/05/09 08:30:33;;;;;;;;;;;;;;;19.76;27.09;96467.91;5007255;28;20355;-67
2022/05/09 08:33:02;;;;;;;;;;;;;;;20.02;28.23;96473.38;5017132;28;19975;-67
2022/05/09 08:35:27;;;;;;;;;;;;;;;20.17;26.83;96473.91;5014296;28;19947;-67
2022/05/09 08:37:52;;;;;;;;;;;;;;;20.22;26.61;96475.94;5013185;28;20244;-68
2022/05/09 08:40:20;;;;;;;;;;;;;;;20.41;27.41;96484.13;5013060;28;20906;-68
2022/05/09 08:42:48;;;;;;;;;;;;;;;20.42;27.10;96483.06;5018075;28;20055;-68
2022/05/09 08:45:17;;;;;;;;;;;;;;;20.55;26.47;96479.41;5019505;28;20540;-67
2022/05/09 08:48:01;;;;;;;;;;;;;;;20.67;26.03;96468.75;5017894;28;19942;-67
2022/05/09 08:50:37;;;;;;;;;;;;;;;20.77;27.91;96470.94;5009453;28;20533;-67
2022/05/09 08:53:06;;;;;;;;;;;;;;;20.80;26.08;96471.31;5017474;28;20371;-67
2022/05/09 08:55:38;;;;;;;;;;;;;;;20.69;27.07;96474.75;5019997;28;19936;-67
2022/05/09 08:58:06;;;;;;;;;;;;;;;21.36;25.50;96468.66;5021139;28;20038;-67
2022/05/09 09:00:31;;;;;;;;;;;;;;;21.09;25.62;96466.25;5020035;28;19964;-67
2022/05/09 09:02:59;;;;;;;;;;;;;;;21.36;25.81;96468.66;5015769;28;20535;-67
2022/05/09 09:05:25;;;;;;;;;;;;;;;21.63;25.96;96473.75;5020633;28;20287;-67
2022/05/09 09:08:09;;;;;;;;;;;;;;;21.63;25.06;96472.91;5018174;28;20113;-67
2022/05/09 09:10:53;;;;;;;;;;;;;;;21.43;25.62;96470.44;5012296;28;20684;-68
2022/05/09 09:13:28;;;;;;;;;;;;;;;21.63;26.57;96470.19;5006770;28;19929;-67
2022/05/09 09:16:12;;;;;;;;;;;;;;;21.46;25.47;96464.59;5019320;28;20189;-67
2022/05/09 09:18:57;;;;;;;;;;;;;;;21.74;24.98;96463.16;5015746;28;20043;-67
2022/05/09 09:21:25;;;;;;;;;;;;;;;21.73;25.35;96472.38;5013563;28;19955;-67
2022/05/09 09:23:56;;;;;;;;;;;;;;;22.24;25.58;96463.94;5008898;28;20018;-67
2022/05/09 09:26:28;;;;;;;;;;;;;;;22.63;24.81;96467.06;5020300;28;19966;-67
2022/05/09 09:28:59;;;;;;;;;;;;;;;22.52;24.08;96473.28;5016214;28;19938;-67
2022/05/09 09:31:28;;;;;;;;;;;;;;;22.95;24.88;96465.06;5019262;28;19925;-67
2022/05/09 09:33:57;;;;;;;;;;;;;;;22.83;23.46;96463.16;5005491;28;20386;-67
2022/05/09 09:36:23;;;;;;;;;;;;;;;23.02;24.78;96465.75;5017653;28;19921;-68
2022/05/09 09:38:56;;;;;;;;;;;;;;;23.05;24.54;96465.28;5017279;28;19925;-67
2022/05/09 09:41:21;;;;;;;;;;;;;;;22.78;24.97;96472.00;5018050;28;19952;-67
2022/05/09 09:43:47;;;;;;;;;;;;;;;22.98;23.77;96464.59;5018887;28;20373;-67
2022/05/09 09:46:12;;;;;;;;;;;;;;;23.41;23.07;96457.91;5016357;28;19925;-67
2022/05/09 09:48:39;;;;;;;;;;;;;;;22.99;23.56;96461.63;5015965;28;20440;-67
2022/05/09 09:51:08;;;;;;;;;;;;;;;22.75;23.44;96461.66;5015132;28;20016;-68
2022/05/09 09:53:36;;;;;;;;;;;;;;;22.66;24.00;96458.47;5002904;28;20400;-67
2022/05/09 09:56:03;;;;;;;;;;;;;;;23.08;23.95;96453.94;5017075;28;19925;-67
2022/05/09 09:58:28;;;;;;;;;;;;;;;23.54;23.85;96456.81;5016063;28;20222;-67
2022/05/09 10:01:04;;;;;;;;;;;;;;;23.73;23.59;96456.63;5004817;28;19927;-67
2022/05/09 10:03:30;;;;;;;;;;;;;;;23.73;22.66;96456.63;5016484;28;19964;-67
2022/05/09 10:05:56;;;;;;;;;;;;;;;23.85;22.61;96456.59;5014051;28;20275;-67
2022/05/09 10:08:34;;;;;;;;;;;;;;;23.58;22.82;96443.56;5013857;28;19928;-67
2022/05/09 10:11:03;;;;;;;;;;;;;;;19.72;28.55;96461.28;5009416;28;19933;-67
2022/05/09 10:13:35;;;;;;;;;;;;;;;22.26;25.21;96449.06;5020020;28;20199;-68
2022/05/09 10:16:02;;;;;;;;;;;;;;;22.97;23.43;96452.09;5017811;28;19929;-68
2022/05/09 10:18:30;;;;;;;;;;;;;;;23.29;23.42;96443.53;5019249;28;20349;-68
2022/05/09 10:20:55;;;;;;;;;;;;;;;24.04;22.73;96443.59;5007811;28;20023;-68
2022/05/09 10:26:19;;;;;;;;;;;;;;;24.18;22.19;96440.56;5016822;28;19936;-68
2022/05/09 10:28:45;;;;;;;;;;;;;;;23.71;22.23;96439.72;5002660;28;19929;-67
2022/05/09 10:31:13;;;;;;;;;;;;;;;23.76;22.74;96439.03;5014933;28;19964;-68
2022/05/09 10:33:47;;;;;;;;;;;;;;;24.10;21.42;96438.25;5012919;28;19925;-68
2022/05/09 10:36:35;;;;;;;;;;;;;;;24.23;22.00;96434.38;5003884;28;19921;-68
2022/05/09 10:39:10;;;;;;;;;;;;;;;24.36;21.66;96438.69;5032150;28;20287;-68
2022/05/09 10:41:40;;;;;;;;;;;;;;;24.55;21.26;96428.38;5017640;28;20406;-67
2022/05/09 10:44:17;;;;;;;;;;;;;;;23.75;21.71;96442.78;5016872;28;19960;-67
2022/05/09 10:46:49;;;;;;;;;;;;;;;22.62;22.84;96432.88;5012715;28;19925;-67
2022/05/09 10:49:24;;;;;;;;;;;;;;;21.33;24.07;96431.19;5006513;28;19925;-67
2022/05/09 10:51:59;;;;;;;;;;;;;;;22.57;23.66;96421.06;5011455;28;20049;-67
2022/05/09 10:54:24;;;;;;;;;;;;;;;23.30;22.19;96423.47;5010236;28;19934;-68
2022/05/09 10:57:08;;;;;;;;;;;;;;;23.94;21.97;96422.47;5017781;28;19939;-68
2022/05/09 10:59:33;;;;;;;;;;;;;;;24.72;21.39;96414.75;4997060;28;20063;-68
2022/05/09 11:02:00;;;;;;;;;;;;;;;25.15;20.20;96416.97;5012885;28;20344;-68
2022/05/09 11:04:26;;;;;;;;;;;;;;;21.19;24.67;96418.84;5011467;28;19951;-67
2022/05/09 11:06:57;;;;;;;;;;;;;;;24.01;21.69;96416.06;5011463;28;20609;-67
2022/05/09 11:09:37;;;;;;;;;;;;;;;24.94;22.39;96405.78;5006328;28;20247;-67
2022/05/09 11:12:08;;;;;;;;;;;;;;;24.57;20.78;96412.63;5012152;28;19925;-67
2022/05/09 11:14:37;;;;;;;;;;;;;;;23.14;21.56;96422.31;5018689;28;20396;-67
2022/05/09 11:17:02;;;;;;;;;;;;;;;23.11;22.88;96406.50;5018412;28;20371;-67
2022/05/09 11:19:34;;;;;;;;;;;;;;;21.08;24.43;96404.19;5015328;28;20117;-67
2022/05/09 11:22:01;;;;;;;;;;;;;;;22.00;23.99;96405.06;5017611;28;19959;-67
2022/05/09 11:24:49;;;;;;;;;;;;;;;23.04;23.52;96407.44;5011446;28;20440;-67
2022/05/09 11:27:26;;;;;;;;;;;;;;;24.40;22.29;96407.22;5012646;28;19921;-67
2022/05/09 11:30:01;;;;;;;;;;;;;;;25.18;21.16;96400.94;5003671;28;19926;-67
2022/05/09 11:32:26;;;;;;;;;;;;;;;22.97;21.43;96393.16;5006745;28;20011;-67
2022/05/09 11:35:10;;;;;;;;;;;;;;;24.64;20.02;96391.50;5018419;28;20031;-67
2022/05/09 11:38:03;;;;;;;;;;;;;;;24.95;20.79;96397.38;5011155;28;20402;-68
2022/05/09 11:40:45;;;;;;;;;;;;;;;23.66;20.05;96401.59;4994538;28;20453;-67
2022/05/09 11:43:29;;;;;;;;;;;;;;;24.19;21.08;96399.53;5010313;28;19948;-67
2022/05/09 11:46:13;;;;;;;;;;;;;;;20.05;23.88;96410.78;5013957;28;20773;-67
2022/05/09 11:48:47;;;;;;;;;;;;;;;21.07;22.33;96395.25;5016489;28;19928;-67
2022/05/09 11:51:27;;;;;;;;;;;;;;;23.69;20.09;96391.03;5008822;28;20451;-67
2022/05/09 11:53:57;;;;;;;;;;;;;;;24.74;19.37;96390.81;5007118;28;19970;-67
2022/05/09 11:56:23;;;;;;;;;;;;;;;24.85;19.25;96397.22;5011407;28;19936;-67
2022/05/09 11:58:48;;;;;;;;;;;;;;;24.29;21.29;96389.88;5012284;28;20306;-67
2022/05/09 12:01:13;;;;;;;;;;;;;;;25.15;18.40;96376.91;5012667;28;19982;-67
2022/05/09 12:03:38;;;;;;;;;;;;;;;25.54;19.36;96386.09;5016462;28;19995;-67
2022/05/09 12:06:04;;;;;;;;;;;;;;;26.22;19.06;96368.44;5011475;28;19933;-68
2022/05/09 12:08:42;;;;;;;;;;;;;;;26.39;18.02;96375.63;5010035;28;19921;-68
2022/05/09 12:11:17;;;;;;;;;;;;;;;26.68;18.86;96370.66;5000452;28;20169;-68
2022/05/09 12:13:42;;;;;;;;;;;;;;;27.18;18.64;96375.00;5015125;28;19925;-68
2022/05/09 12:16:07;;;;;;;;;;;;;;;27.91;17.62;96376.00;5014306;28;20054;-68
2022/05/09 12:18:32;;;;;;;;;;;;;;;27.73;18.08;96380.09;5007690;28;20019;-68
2022/05/09 12:21:03;;;;;;;;;;;;;;;28.11;16.27;96371.63;5001802;28;19972;-68
2022/05/09 12:23:41;;;;;;;;;;;;;;;27.97;16.95;96377.63;5009006;28;19929;-69
2022/05/09 12:26:06;;;;;;;;;;;;;;;28.01;18.34;96364.25;5012943;28;19960;-68
2022/05/09 12:28:33;;;;;;;;;;;;;;;28.22;17.45;96375.19;5007794;28;19975;-68
2022/05/09 12:31:21;;;;;;;;;;;;;;;28.39;17.00;96372.19;5008436;28;19948;-68
2022/05/09 12:33:47;;;;;;;;;;;;;;;26.10;18.27;96371.34;4981273;28;19929;-68
2022/05/09 12:36:27;;;;;;;;;;;;;;;25.37;19.04;96369.81;5011902;28;19992;-68
2022/05/09 12:38:56;;;;;;;;;;;;;;;23.88;20.41;96366.38;5008413;28;19925;-68
2022/05/09 12:41:21;;;;;;;;;;;;;;;26.16;17.97;96358.56;5012425;28;19948;-69
2022/05/09 12:43:50;;;;;;;;;;;;;;;26.55;18.14;96357.47;5006055;28;19925;-68
2022/05/09 12:46:24;;;;;;;;;;;;;;;26.88;17.36;96355.47;5008963;28;20014;-68
2022/05/09 12:48:49;;;;;;;;;;;;;;;26.74;18.01;96355.97;5007491;28;19921;-68
2022/05/09 12:51:15;;;;;;;;;;;;;;;25.87;19.23;96348.78;5006918;28;20253;-68
2022/05/09 12:53:40;;;;;;;;;;;;;;;24.99;20.20;96345.13;5005681;28;19932;-68
2022/05/09 12:56:13;;;;;;;;;;;;;;;24.89;18.75;96346.66;5009777;28;19925;-68
2022/05/09 12:58:39;;;;;;;;;;;;;;;26.06;18.43;96343.78;5008952;28;20218;-67
2022/05/09 13:01:05;;;;;;;;;;;;;;;25.96;18.96;96349.94;5006440;28;19935;-68